sensor_id;sensor_type;location;lat;lon;timestamp;P1;durP1;ratioP1;P2;durP2;ratioP2
22415;SDS011;12204;50.600;4.608;2023-12-14T00:04:56;14.80;;;6.95;;
22415;SDS011;12204;50.600;4.608;2023-12-14T00:10:00;15.10;;;7.10;;
22415;SDS011;12204;50.600;4.608;2023-12-14T00:15:06;13.02;;;6.80;;
22415;SDS011;12204;50.600;4.608;2023-12-14T00:20:11;14.85;;;6.80;;
22415;SDS011;12204;50.600;4.608;2023-12-14T00:25:15;13.77;;;6.78;;
22415;SDS011;12204;50.600;4.608;2023-12-14T00:30:20;12.65;;;6.60;;
22415;SDS011;12204;50.600;4.608;2023-12-14T00:35:24;12.65;;;6.47;;
22415;SDS011;12204;50.600;4.608;2023-12-14T00:40:28;16.77;;;6.90;;
22415;SDS011;12204;50.600;4.608;2023-12-14T00:45:32;16.73;;;6.70;;
22415;SDS011;12204;50.600;4.608;2023-12-14T00:50:36;18.40;;;6.75;;
22415;SDS011;12204;50.600;4.608;2023-12-14T00:55:39;17.85;;;6.28;;
22415;SDS011;12204;50.600;4.608;2023-12-14T01:00:44;13.73;;;6.22;;
22415;SDS011;12204;50.600;4.608;2023-12-14T01:05:48;19.42;;;6.25;;
22415;SDS011;12204;50.600;4.608;2023-12-14T01:10:52;17.80;;;6.25;;
22415;SDS011;12204;50.600;4.608;2023-12-14T01:15:57;13.52;;;5.80;;
22415;SDS011;12204;50.600;4.608;2023-12-14T01:21:00;13.95;;;5.85;;
22415;SDS011;12204;50.600;4.608;2023-12-14T01:26:04;14.90;;;6.03;;
22415;SDS011;12204;50.600;4.608;2023-12-14T01:31:09;15.27;;;5.93;;
22415;SDS011;12204;50.600;4.608;2023-12-14T01:36:19;14.45;;;6.00;;
22415;SDS011;12204;50.600;4.608;2023-12-14T01:41:23;16.13;;;6.15;;
22415;SDS011;12204;50.600;4.608;2023-12-14T01:46:28;13.45;;;5.90;;
22415;SDS011;12204;50.600;4.608;2023-12-14T01:51:32;9.93;;;5.50;;
22415;SDS011;12204;50.600;4.608;2023-12-14T01:56:36;11.75;;;5.20;;
22415;SDS011;12204;50.600;4.608;2023-12-14T02:01:41;11.43;;;5.40;;
22415;SDS011;12204;50.600;4.608;2023-12-14T02:06:47;11.50;;;5.78;;
22415;SDS011;12204;50.600;4.608;2023-12-14T02:11:50;12.80;;;5.75;;
22415;SDS011;12204;50.600;4.608;2023-12-14T02:16:55;11.68;;;5.18;;
22415;SDS011;12204;50.600;4.608;2023-12-14T02:21:59;11.50;;;5.28;;
22415;SDS011;12204;50.600;4.608;2023-12-14T02:27:03;12.02;;;5.50;;
22415;SDS011;12204;50.600;4.608;2023-12-14T02:32:07;12.27;;;5.00;;
22415;SDS011;12204;50.600;4.608;2023-12-14T02:37:11;10.75;;;5.35;;
22415;SDS011;12204;50.600;4.608;2023-12-14T02:42:16;12.32;;;5.28;;
22415;SDS011;12204;50.600;4.608;2023-12-14T02:47:19;12.95;;;5.45;;
22415;SDS011;12204;50.600;4.608;2023-12-14T02:52:22;12.30;;;5.18;;
22415;SDS011;12204;50.600;4.608;2023-12-14T02:57:27;13.20;;;5.25;;
22415;SDS011;12204;50.600;4.608;2023-12-14T03:02:31;11.30;;;5.13;;
22415;SDS011;12204;50.600;4.608;2023-12-14T03:07:35;11.07;;;4.90;;
22415;SDS011;12204;50.600;4.608;2023-12-14T03:12:40;10.10;;;4.57;;
22415;SDS011;12204;50.600;4.608;2023-12-14T03:24:11;8.98;;;3.92;;
22415;SDS011;12204;50.600;4.608;2023-12-14T03:29:16;8.48;;;3.83;;
22415;SDS011;12204;50.600;4.608;2023-12-14T03:34:19;8.88;;;3.65;;
22415;SDS011;12204;50.600;4.608;2023-12-14T03:39:23;9.18;;;3.20;;
22415;SDS011;12204;50.600;4.608;2023-12-14T03:44:28;9.35;;;3.13;;
22415;SDS011;12204;50.600;4.608;2023-12-14T03:49:32;8.48;;;3.50;;
22415;SDS011;12204;50.600;4.608;2023-12-14T03:54:40;7.78;;;3.50;;
22415;SDS011;12204;50.600;4.608;2023-12-14T03:59:45;8.25;;;3.50;;
22415;SDS011;12204;50.600;4.608;2023-12-14T04:04:48;8.32;;;3.38;;
22415;SDS011;12204;50.600;4.608;2023-12-14T04:09:52;8.65;;;3.58;;
22415;SDS011;12204;50.600;4.608;2023-12-14T04:14:57;6.75;;;3.10;;
22415;SDS011;12204;50.600;4.608;2023-12-14T04:20:00;8.73;;;3.50;;
22415;SDS011;12204;50.600;4.608;2023-12-14T04:25:05;9.45;;;3.10;;
22415;SDS011;12204;50.600;4.608;2023-12-14T04:30:11;11.90;;;3.50;;
22415;SDS011;12204;50.600;4.608;2023-12-14T04:35:15;8.30;;;2.92;;
22415;SDS011;12204;50.600;4.608;2023-12-14T04:40:18;8.63;;;3.22;;
22415;SDS011;12204;50.600;4.608;2023-12-14T04:45:23;8.68;;;3.38;;
22415;SDS011;12204;50.600;4.608;2023-12-14T04:50:27;8.27;;;3.50;;
22415;SDS011;12204;50.600;4.608;2023-12-14T04:55:31;7.38;;;3.30;;
22415;SDS011;12204;50.600;4.608;2023-12-14T05:00:35;6.97;;;3.00;;
22415;SDS011;12204;50.600;4.608;2023-12-14T05:05:39;7.72;;;3.70;;
22415;SDS011;12204;50.600;4.608;2023-12-14T05:10:43;7.68;;;3.25;;
22415;SDS011;12204;50.600;4.608;2023-12-14T05:15:48;7.85;;;3.15;;
22415;SDS011;12204;50.600;4.608;2023-12-14T05:20:51;5.65;;;2.97;;
22415;SDS011;12204;50.600;4.608;2023-12-14T05:25:55;7.90;;;3.30;;
22415;SDS011;12204;50.600;4.608;2023-12-14T05:30:59;9.77;;;3.22;;
22415;SDS011;12204;50.600;4.608;2023-12-14T05:36:04;6.85;;;3.10;;
22415;SDS011;12204;50.600;4.608;2023-12-14T05:41:12;7.47;;;3.05;;
22415;SDS011;12204;50.600;4.608;2023-12-14T05:46:23;7.47;;;2.95;;
22415;SDS011;12204;50.600;4.608;2023-12-14T05:51:27;9.93;;;3.10;;
22415;SDS011;12204;50.600;4.608;2023-12-14T05:56:32;7.45;;;3.17;;
22415;SDS011;12204;50.600;4.608;2023-12-14T06:01:41;6.47;;;2.83;;
22415;SDS011;12204;50.600;4.608;2023-12-14T06:06:45;6.95;;;2.90;;
22415;SDS011;12204;50.600;4.608;2023-12-14T06:11:48;8.23;;;2.92;;
22415;SDS011;12204;50.600;4.608;2023-12-14T06:16:53;8.25;;;3.00;;
22415;SDS011;12204;50.600;4.608;2023-12-14T06:21:58;6.45;;;3.03;;
22415;SDS011;12204;50.600;4.608;2023-12-14T06:27:01;6.38;;;2.90;;
22415;SDS011;12204;50.600;4.608;2023-12-14T06:37:58;5.85;;;2.90;;
22415;SDS011;12204;50.600;4.608;2023-12-14T06:43:03;7.45;;;3.17;;
22415;SDS011;12204;50.600;4.608;2023-12-14T06:48:07;5.78;;;2.50;;
22415;SDS011;12204;50.600;4.608;2023-12-14T06:53:12;5.63;;;2.65;;
22415;SDS011;12204;50.600;4.608;2023-12-14T06:58:17;7.15;;;2.92;;
22415;SDS011;12204;50.600;4.608;2023-12-14T07:03:21;6.40;;;2.90;;
22415;SDS011;12204;50.600;4.608;2023-12-14T07:08:26;7.78;;;2.80;;
22415;SDS011;12204;50.600;4.608;2023-12-14T07:13:29;6.68;;;2.90;;
22415;SDS011;12204;50.600;4.608;2023-12-14T07:18:33;6.75;;;2.70;;
22415;SDS011;12204;50.600;4.608;2023-12-14T07:23:38;6.47;;;2.67;;
22415;SDS011;12204;50.600;4.608;2023-12-14T07:28:42;6.22;;;2.70;;
22415;SDS011;12204;50.600;4.608;2023-12-14T07:33:45;5.50;;;2.60;;
22415;SDS011;12204;50.600;4.608;2023-12-14T07:38:50;6.55;;;2.53;;
22415;SDS011;12204;50.600;4.608;2023-12-14T07:43:56;7.57;;;2.70;;
22415;SDS011;12204;50.600;4.608;2023-12-14T07:49:01;12.60;;;3.22;;
22415;SDS011;12204;50.600;4.608;2023-12-14T07:54:06;15.18;;;2.78;;
22415;SDS011;12204;50.600;4.608;2023-12-14T07:59:09;10.75;;;2.60;;
22415;SDS011;12204;50.600;4.608;2023-12-14T08:04:13;10.32;;;2.45;;
22415;SDS011;12204;50.600;4.608;2023-12-14T08:09:18;7.35;;;2.30;;
22415;SDS011;12204;50.600;4.608;2023-12-14T08:14:22;8.45;;;2.63;;
22415;SDS011;12204;50.600;4.608;2023-12-14T08:19:25;7.00;;;2.60;;
22415;SDS011;12204;50.600;4.608;2023-12-14T08:24:30;9.07;;;2.55;;
22415;SDS011;12204;50.600;4.608;2023-12-14T08:29:34;6.20;;;2.30;;
22415;SDS011;12204;50.600;4.608;2023-12-14T08:34:37;6.25;;;2.35;;
22415;SDS011;12204;50.600;4.608;2023-12-14T08:39:44;6.57;;;2.38;;
22415;SDS011;12204;50.600;4.608;2023-12-14T08:44:47;5.90;;;2.30;;
22415;SDS011;12204;50.600;4.608;2023-12-14T08:49:51;8.07;;;2.20;;
22415;SDS011;12204;50.600;4.608;2023-12-14T08:54:56;6.85;;;2.40;;
22415;SDS011;12204;50.600;4.608;2023-12-14T09:00:00;9.02;;;2.85;;
22415;SDS011;12204;50.600;4.608;2023-12-14T09:05:06;19.63;;;3.90;;
22415;SDS011;12204;50.600;4.608;2023-12-14T09:10:14;19.95;;;3.40;;
22415;SDS011;12204;50.600;4.608;2023-12-14T09:15:18;6.70;;;2.92;;
22415;SDS011;12204;50.600;4.608;2023-12-14T09:20:22;11.15;;;2.95;;
22415;SDS011;12204;50.600;4.608;2023-12-14T09:25:27;10.93;;;3.03;;
22415;SDS011;12204;50.600;4.608;2023-12-14T09:30:30;9.32;;;3.03;;
22415;SDS011;12204;50.600;4.608;2023-12-14T09:35:34;9.30;;;2.85;;
22415;SDS011;12204;50.600;4.608;2023-12-14T09:40:39;7.65;;;2.50;;
22415;SDS011;12204;50.600;4.608;2023-12-14T09:45:46;8.45;;;2.67;;
22415;SDS011;12204;50.600;4.608;2023-12-14T09:50:50;8.15;;;2.58;;
22415;SDS011;12204;50.600;4.608;2023-12-14T09:55:55;9.00;;;2.70;;
22415;SDS011;12204;50.600;4.608;2023-12-14T10:00:59;9.40;;;2.50;;
22415;SDS011;12204;50.600;4.608;2023-12-14T10:06:05;6.35;;;2.75;;
22415;SDS011;12204;50.600;4.608;2023-12-14T10:11:15;7.60;;;2.60;;
22415;SDS011;12204;50.600;4.608;2023-12-14T10:16:28;7.65;;;2.58;;
22415;SDS011;12204;50.600;4.608;2023-12-14T10:21:33;7.15;;;2.58;;
22415;SDS011;12204;50.600;4.608;2023-12-14T10:26:39;7.30;;;2.55;;
22415;SDS011;12204;50.600;4.608;2023-12-14T10:31:43;7.00;;;2.55;;
22415;SDS011;12204;50.600;4.608;2023-12-14T10:36:46;6.30;;;2.30;;
22415;SDS011;12204;50.600;4.608;2023-12-14T10:41:52;9.80;;;2.45;;
22415;SDS011;12204;50.600;4.608;2023-12-14T10:47:08;6.65;;;2.40;;
22415;SDS011;12204;50.600;4.608;2023-12-14T10:52:12;7.88;;;2.38;;
22415;SDS011;12204;50.600;4.608;2023-12-14T10:57:17;5.78;;;2.33;;
22415;SDS011;12204;50.600;4.608;2023-12-14T11:02:20;6.47;;;2.35;;
22415;SDS011;12204;50.600;4.608;2023-12-14T11:07:42;8.38;;;2.83;;
22415;SDS011;12204;50.600;4.608;2023-12-14T11:12:56;6.13;;;2.20;;
22415;SDS011;12204;50.600;4.608;2023-12-14T11:18:22;5.53;;;2.13;;
22415;SDS011;12204;50.600;4.608;2023-12-14T11:23:31;5.95;;;2.22;;
22415;SDS011;12204;50.600;4.608;2023-12-14T11:28:41;6.57;;;2.30;;
22415;SDS011;12204;50.600;4.608;2023-12-14T11:33:45;7.28;;;2.47;;
22415;SDS011;12204;50.600;4.608;2023-12-14T11:38:49;8.50;;;2.63;;
22415;SDS011;12204;50.600;4.608;2023-12-14T11:43:57;8.90;;;3.50;;
22415;SDS011;12204;50.600;4.608;2023-12-14T11:49:01;8.25;;;3.20;;
22415;SDS011;12204;50.600;4.608;2023-12-14T11:54:05;7.60;;;3.70;;
22415;SDS011;12204;50.600;4.608;2023-12-14T11:59:11;9.88;;;4.30;;
22415;SDS011;12204;50.600;4.608;2023-12-14T12:04:15;10.18;;;3.97;;
22415;SDS011;12204;50.600;4.608;2023-12-14T12:27:28;8.55;;;2.92;;
22415;SDS011;12204;50.600;4.608;2023-12-14T12:32:32;8.02;;;3.10;;
22415;SDS011;12204;50.600;4.608;2023-12-14T12:37:36;11.20;;;2.70;;
22415;SDS011;12204;50.600;4.608;2023-12-14T12:42:40;6.30;;;2.97;;
22415;SDS011;12204;50.600;4.608;2023-12-14T12:47:44;7.70;;;2.70;;
22415;SDS011;12204;50.600;4.608;2023-12-14T12:52:48;7.60;;;2.80;;
22415;SDS011;12204;50.600;4.608;2023-12-14T12:57:52;8.55;;;2.97;;
22415;SDS011;12204;50.600;4.608;2023-12-14T13:02:58;9.63;;;2.40;;
22415;SDS011;12204;50.600;4.608;2023-12-14T13:08:03;7.57;;;2.08;;
22415;SDS011;12204;50.600;4.608;2023-12-14T13:13:08;7.00;;;2.30;;
22415;SDS011;12204;50.600;4.608;2023-12-14T13:18:13;6.85;;;2.38;;
22415;SDS011;12204;50.600;4.608;2023-12-14T13:23:20;8.63;;;2.53;;
22415;SDS011;12204;50.600;4.608;2023-12-14T13:28:24;9.25;;;2.55;;
22415;SDS011;12204;50.600;4.608;2023-12-14T13:33:29;10.07;;;2.38;;
22415;SDS011;12204;50.600;4.608;2023-12-14T13:38:33;48.72;;;18.63;;
22415;SDS011;12204;50.600;4.608;2023-12-14T13:43:37;96.18;;;39.20;;
22415;SDS011;12204;50.600;4.608;2023-12-14T13:48:42;117.05;;;46.85;;
22415;SDS011;12204;50.600;4.608;2023-12-14T13:53:45;166.52;;;64.75;;
22415;SDS011;12204;50.600;4.608;2023-12-14T13:58:49;196.32;;;82.10;;
22415;SDS011;12204;50.600;4.608;2023-12-14T14:03:55;188.27;;;75.70;;
22415;SDS011;12204;50.600;4.608;2023-12-14T14:08:58;170.00;;;69.80;;
22415;SDS011;12204;50.600;4.608;2023-12-14T14:14:02;162.15;;;67.03;;
22415;SDS011;12204;50.600;4.608;2023-12-14T14:19:07;161.27;;;63.90;;
22415;SDS011;12204;50.600;4.608;2023-12-14T14:24:11;148.18;;;58.50;;
22415;SDS011;12204;50.600;4.608;2023-12-14T14:29:14;139.52;;;57.35;;
22415;SDS011;12204;50.600;4.608;2023-12-14T14:34:21;130.30;;;55.85;;
22415;SDS011;12204;50.600;4.608;2023-12-14T14:39:26;128.57;;;54.25;;
22415;SDS011;12204;50.600;4.608;2023-12-14T14:44:29;121.78;;;51.08;;
22415;SDS011;12204;50.600;4.608;2023-12-14T14:49:34;118.78;;;49.28;;
22415;SDS011;12204;50.600;4.608;2023-12-14T14:54:37;111.00;;;45.47;;
22415;SDS011;12204;50.600;4.608;2023-12-14T14:59:41;86.28;;;38.78;;
22415;SDS011;12204;50.600;4.608;2023-12-14T15:04:46;81.32;;;35.90;;
22415;SDS011;12204;50.600;4.608;2023-12-14T15:09:50;75.32;;;33.05;;
22415;SDS011;12204;50.600;4.608;2023-12-14T15:14:54;67.13;;;31.75;;
22415;SDS011;12204;50.600;4.608;2023-12-14T15:19:59;70.65;;;29.67;;
22415;SDS011;12204;50.600;4.608;2023-12-14T15:25:04;68.40;;;29.30;;
22415;SDS011;12204;50.600;4.608;2023-12-14T15:30:08;60.47;;;27.85;;
22415;SDS011;12204;50.600;4.608;2023-12-14T15:35:14;56.90;;;26.25;;
22415;SDS011;12204;50.600;4.608;2023-12-14T15:40:18;54.58;;;26.00;;
22415;SDS011;12204;50.600;4.608;2023-12-14T15:45:21;55.28;;;25.20;;
22415;SDS011;12204;50.600;4.608;2023-12-14T15:50:26;52.17;;;23.85;;
22415;SDS011;12204;50.600;4.608;2023-12-14T15:55:30;54.78;;;25.27;;
22415;SDS011;12204;50.600;4.608;2023-12-14T16:00:34;51.03;;;24.13;;
22415;SDS011;12204;50.600;4.608;2023-12-14T16:05:39;45.95;;;22.05;;
22415;SDS011;12204;50.600;4.608;2023-12-14T16:10:42;47.40;;;22.00;;
22415;SDS011;12204;50.600;4.608;2023-12-14T16:15:48;44.13;;;21.08;;
22415;SDS011;12204;50.600;4.608;2023-12-14T16:20:53;46.65;;;20.60;;
22415;SDS011;12204;50.600;4.608;2023-12-14T16:26:20;38.65;;;19.23;;
22415;SDS011;12204;50.600;4.608;2023-12-14T16:31:26;41.53;;;17.00;;
22415;SDS011;12204;50.600;4.608;2023-12-14T16:36:31;32.83;;;15.85;;
22415;SDS011;12204;50.600;4.608;2023-12-14T16:41:35;37.22;;;15.27;;
22415;SDS011;12204;50.600;4.608;2023-12-14T16:46:38;38.00;;;14.65;;
22415;SDS011;12204;50.600;4.608;2023-12-14T16:51:44;41.53;;;14.55;;
22415;SDS011;12204;50.600;4.608;2023-12-14T16:56:47;45.03;;;16.33;;
22415;SDS011;12204;50.600;4.608;2023-12-14T17:01:54;41.10;;;15.27;;
22415;SDS011;12204;50.600;4.608;2023-12-14T17:06:59;43.00;;;15.98;;
22415;SDS011;12204;50.600;4.608;2023-12-14T17:12:02;41.38;;;15.52;;
22415;SDS011;12204;50.600;4.608;2023-12-14T17:17:06;38.55;;;15.88;;
22415;SDS011;12204;50.600;4.608;2023-12-14T17:22:11;43.78;;;16.42;;
22415;SDS011;12204;50.600;4.608;2023-12-14T17:27:15;42.20;;;17.00;;
22415;SDS011;12204;50.600;4.608;2023-12-14T17:32:18;36.67;;;16.70;;
22415;SDS011;12204;50.600;4.608;2023-12-14T17:37:23;40.28;;;16.63;;
22415;SDS011;12204;50.600;4.608;2023-12-14T17:42:27;38.67;;;16.75;;
22415;SDS011;12204;50.600;4.608;2023-12-14T17:47:31;36.92;;;16.00;;
22415;SDS011;12204;50.600;4.608;2023-12-14T17:52:37;33.42;;;15.70;;
22415;SDS011;12204;50.600;4.608;2023-12-14T17:57:40;37.92;;;16.20;;
22415;SDS011;12204;50.600;4.608;2023-12-14T18:02:44;37.22;;;17.35;;
22415;SDS011;12204;50.600;4.608;2023-12-14T18:07:48;28.33;;;12.82;;
22415;SDS011;12204;50.600;4.608;2023-12-14T18:12:53;21.88;;;9.77;;
22415;SDS011;12204;50.600;4.608;2023-12-14T18:18:03;21.13;;;9.18;;
22415;SDS011;12204;50.600;4.608;2023-12-14T18:23:08;23.48;;;9.23;;
22415;SDS011;12204;50.600;4.608;2023-12-14T18:28:12;20.35;;;8.65;;
22415;SDS011;12204;50.600;4.608;2023-12-14T18:33:15;19.73;;;8.75;;
22415;SDS011;12204;50.600;4.608;2023-12-14T18:38:21;20.02;;;8.52;;
22415;SDS011;12204;50.600;4.608;2023-12-14T18:43:24;16.67;;;8.07;;
22415;SDS011;12204;50.600;4.608;2023-12-14T18:48:28;20.23;;;7.50;;
22415;SDS011;12204;50.600;4.608;2023-12-14T18:53:33;17.55;;;7.25;;
22415;SDS011;12204;50.600;4.608;2023-12-14T18:58:37;17.30;;;7.55;;
22415;SDS011;12204;50.600;4.608;2023-12-14T19:03:42;18.65;;;8.07;;
22415;SDS011;12204;50.600;4.608;2023-12-14T19:08:46;21.83;;;9.18;;
22415;SDS011;12204;50.600;4.608;2023-12-14T19:13:50;19.38;;;8.35;;
22415;SDS011;12204;50.600;4.608;2023-12-14T19:18:54;22.05;;;9.02;;
22415;SDS011;12204;50.600;4.608;2023-12-14T19:23:59;21.98;;;8.98;;
22415;SDS011;12204;50.600;4.608;2023-12-14T19:29:02;22.15;;;8.95;;
22415;SDS011;12204;50.600;4.608;2023-12-14T19:34:06;20.75;;;10.27;;
22415;SDS011;12204;50.600;4.608;2023-12-14T19:39:11;19.67;;;9.48;;
22415;SDS011;12204;50.600;4.608;2023-12-14T19:44:15;18.63;;;9.35;;
22415;SDS011;12204;50.600;4.608;2023-12-14T19:49:19;20.63;;;9.23;;
22415;SDS011;12204;50.600;4.608;2023-12-14T19:54:25;22.77;;;10.02;;
22415;SDS011;12204;50.600;4.608;2023-12-14T19:59:28;22.42;;;9.98;;
22415;SDS011;12204;50.600;4.608;2023-12-14T20:04:31;23.88;;;10.48;;
22415;SDS011;12204;50.600;4.608;2023-12-14T20:09:36;23.50;;;10.30;;
22415;SDS011;12204;50.600;4.608;2023-12-14T20:14:57;23.92;;;10.32;;
22415;SDS011;12204;50.600;4.608;2023-12-14T20:20:00;26.23;;;10.48;;
22415;SDS011;12204;50.600;4.608;2023-12-14T20:25:07;26.45;;;10.52;;
22415;SDS011;12204;50.600;4.608;2023-12-14T20:30:11;29.27;;;10.68;;
22415;SDS011;12204;50.600;4.608;2023-12-14T20:35:15;21.15;;;10.00;;
22415;SDS011;12204;50.600;4.608;2023-12-14T20:40:21;24.23;;;10.02;;
22415;SDS011;12204;50.600;4.608;2023-12-14T20:45:25;21.88;;;10.15;;
22415;SDS011;12204;50.600;4.608;2023-12-14T20:50:29;21.10;;;9.93;;
22415;SDS011;12204;50.600;4.608;2023-12-14T20:55:36;21.13;;;10.02;;
22415;SDS011;12204;50.600;4.608;2023-12-14T21:00:40;21.95;;;10.45;;
22415;SDS011;12204;50.600;4.608;2023-12-14T21:05:43;24.23;;;10.13;;
22415;SDS011;12204;50.600;4.608;2023-12-14T21:10:51;24.50;;;10.20;;
22415;SDS011;12204;50.600;4.608;2023-12-14T21:15:54;23.38;;;9.93;;
22415;SDS011;12204;50.600;4.608;2023-12-14T21:20:58;24.40;;;9.73;;
22415;SDS011;12204;50.600;4.608;2023-12-14T21:26:03;19.33;;;8.20;;
22415;SDS011;12204;50.600;4.608;2023-12-14T21:31:09;20.08;;;8.20;;
22415;SDS011;12204;50.600;4.608;2023-12-14T21:36:13;19.67;;;7.97;;
22415;SDS011;12204;50.600;4.608;2023-12-14T21:41:17;19.05;;;7.80;;
22415;SDS011;12204;50.600;4.608;2023-12-14T21:46:24;18.38;;;7.43;;
22415;SDS011;12204;50.600;4.608;2023-12-14T21:51:27;23.77;;;10.45;;
22415;SDS011;12204;50.600;4.608;2023-12-14T21:56:32;79.47;;;33.35;;
22415;SDS011;12204;50.600;4.608;2023-12-14T22:01:35;111.95;;;47.05;;
22415;SDS011;12204;50.600;4.608;2023-12-14T22:06:39;125.03;;;51.50;;
22415;SDS011;12204;50.600;4.608;2023-12-14T22:11:44;123.65;;;51.78;;
22415;SDS011;12204;50.600;4.608;2023-12-14T22:16:47;138.13;;;57.92;;
22415;SDS011;12204;50.600;4.608;2023-12-14T22:21:52;172.82;;;69.18;;
22415;SDS011;12204;50.600;4.608;2023-12-14T22:26:56;200.60;;;87.28;;
22415;SDS011;12204;50.600;4.608;2023-12-14T22:32:01;233.68;;;101.28;;
22415;SDS011;12204;50.600;4.608;2023-12-14T22:37:06;216.48;;;93.28;;
22415;SDS011;12204;50.600;4.608;2023-12-14T22:42:10;205.23;;;87.95;;
22415;SDS011;12204;50.600;4.608;2023-12-14T22:47:14;189.93;;;81.25;;
22415;SDS011;12204;50.600;4.608;2023-12-14T22:52:18;178.45;;;79.50;;
22415;SDS011;12204;50.600;4.608;2023-12-14T22:57:23;184.63;;;77.13;;
22415;SDS011;12204;50.600;4.608;2023-12-14T23:02:27;174.50;;;74.70;;
22415;SDS011;12204;50.600;4.608;2023-12-14T23:07:31;170.05;;;72.35;;
22415;SDS011;12204;50.600;4.608;2023-12-14T23:12:36;160.43;;;71.07;;
22415;SDS011;12204;50.600;4.608;2023-12-14T23:17:39;155.35;;;67.97;;
22415;SDS011;12204;50.600;4.608;2023-12-14T23:22:44;150.90;;;65.82;;
22415;SDS011;12204;50.600;4.608;2023-12-14T23:27:48;145.68;;;63.03;;
22415;SDS011;12204;50.600;4.608;2023-12-14T23:32:53;143.95;;;62.38;;
22415;SDS011;12204;50.600;4.608;2023-12-14T23:37:56;135.20;;;60.58;;
22415;SDS011;12204;50.600;4.608;2023-12-14T23:43:01;142.95;;;60.58;;
22415;SDS011;12204;50.600;4.608;2023-12-14T23:48:05;131.70;;;58.92;;
22415;SDS011;12204;50.600;4.608;2023-12-14T23:53:08;132.90;;;58.08;;
22415;SDS011;12204;50.600;4.608;2023-12-14T23:58:13;128.70;;;57.00;;
